createdAt,value
2023-01-12T00:01:42.477Z,10.88
2023-01-12T00:04:12.466Z,6.43
2023-01-12T00:06:40.528Z,8.13
2023-01-12T00:09:07.662Z,7.03
2023-01-12T00:11:35.522Z,7.05
2023-01-12T00:14:02.249Z,10.48
2023-01-12T00:16:34.817Z,6.97
2023-01-12T00:19:12.855Z,10.80
2023-01-12T00:22:00.582Z,8.57
2023-01-12T00:24:32.356Z,10.77
2023-01-12T00:27:00.203Z,5.05
2023-01-12T00:29:28.021Z,12.25
2023-01-12T00:31:56.363Z,11.57
2023-01-12T00:34:23.719Z,8.82
2023-01-12T00:36:50.499Z,7.03
2023-01-12T00:39:17.656Z,8.85
2023-01-12T00:42:03.402Z,10.93
2023-01-12T00:44:49.136Z,11.53
2023-01-12T00:47:16.624Z,11.25
2023-01-12T00:49:43.478Z,8.93
2023-01-12T00:52:18.217Z,10.20
2023-01-12T00:54:51.676Z,10.55
2023-01-12T00:57:19.325Z,15.10
2023-01-12T00:59:47.676Z,11.43
2023-01-12T01:02:14.183Z,13.73
2023-01-12T01:04:40.631Z,15.02
2023-01-12T01:07:07.184Z,13.07
2023-01-12T01:09:33.653Z,16.87
2023-01-12T01:12:00.127Z,12.52
2023-01-12T01:14:26.657Z,11.40
2023-01-12T01:16:53.094Z,9.50
2023-01-12T01:19:19.526Z,14.18
2023-01-12T01:21:46.000Z,13.10
2023-01-12T01:24:13.829Z,15.43
2023-01-12T01:26:40.875Z,14.80
2023-01-12T01:29:07.994Z,14.10
2023-01-12T01:31:34.874Z,16.00
2023-01-12T01:34:01.301Z,11.17
2023-01-12T01:36:27.860Z,9.38
2023-01-12T01:38:54.367Z,11.27
2023-01-12T01:41:25.334Z,17.50
2023-01-12T01:44:00.741Z,11.05
2023-01-12T01:46:37.878Z,14.00
2023-01-12T01:49:22.729Z,13.02
2023-01-12T01:51:50.977Z,16.73
2023-01-12T01:54:17.647Z,13.85
2023-01-12T01:56:45.382Z,10.70
2023-01-12T01:59:20.664Z,7.90
2023-01-12T02:01:47.688Z,12.98
2023-01-12T02:04:15.806Z,8.05
2023-01-12T02:06:43.306Z,12.90
2023-01-12T02:09:15.312Z,17.20
2023-01-12T02:12:01.078Z,11.07
2023-01-12T02:14:46.532Z,7.70
2023-01-12T02:17:31.440Z,7.78
2023-01-12T02:20:03.899Z,8.60
2023-01-12T02:22:45.598Z,11.48
2023-01-12T02:25:43.126Z,11.17
2023-01-12T02:28:25.847Z,4.68
2023-01-12T02:31:23.820Z,9.50
2023-01-12T02:34:24.530Z,9.82
2023-01-12T02:37:17.809Z,10.77
2023-01-12T02:39:58.557Z,4.07
2023-01-12T02:42:55.591Z,8.25
2023-01-12T02:45:42.746Z,4.28
2023-01-12T02:48:14.006Z,4.50
2023-01-12T02:51:13.258Z,5.25
2023-01-12T02:53:49.062Z,2.47
2023-01-12T02:56:28.904Z,5.38
2023-01-12T02:58:59.584Z,3.28
2023-01-12T03:01:27.632Z,5.03
2023-01-12T03:04:00.408Z,3.75
2023-01-12T03:06:41.665Z,5.83
2023-01-12T03:09:08.486Z,3.22
2023-01-12T03:11:40.466Z,2.70
2023-01-12T03:14:09.509Z,6.00
2023-01-12T03:16:38.076Z,2.80
2023-01-12T03:19:16.064Z,3.90
2023-01-12T03:21:53.279Z,8.70
2023-01-12T03:24:29.059Z,5.30
2023-01-12T03:27:01.976Z,5.72
2023-01-12T03:29:37.748Z,7.00
2023-01-12T03:32:04.707Z,6.53
2023-01-12T03:34:33.390Z,3.33
2023-01-12T03:37:18.563Z,6.93
2023-01-12T03:40:11.571Z,5.38
2023-01-12T03:43:01.729Z,4.38
2023-01-12T03:45:35.323Z,4.30
2023-01-12T03:48:14.915Z,5.63
2023-01-12T03:50:46.385Z,4.90
2023-01-12T03:53:16.699Z,10.05
2023-01-12T03:55:44.531Z,3.80
2023-01-12T03:58:11.155Z,3.43
2023-01-12T04:00:38.718Z,2.63
2023-01-12T04:03:11.093Z,5.45
2023-01-12T04:05:38.607Z,7.75
2023-01-12T04:08:05.531Z,5.28
2023-01-12T04:10:32.011Z,3.83
2023-01-12T04:12:58.450Z,5.65
2023-01-12T04:15:24.923Z,3.75
2023-01-12T04:17:51.591Z,2.60
2023-01-12T04:20:18.649Z,8.02
2023-01-12T04:22:46.027Z,3.20
2023-01-12T04:25:20.664Z,6.40
2023-01-12T04:27:51.842Z,6.10
2023-01-12T04:30:23.485Z,5.97
2023-01-12T04:32:50.595Z,2.33
2023-01-12T04:35:17.709Z,2.97
2023-01-12T04:37:44.891Z,3.45
2023-01-12T04:40:13.630Z,4.18
2023-01-12T04:43:01.778Z,4.32
2023-01-12T04:45:30.428Z,4.43
2023-01-12T04:48:01.341Z,4.50
2023-01-12T04:50:27.745Z,4.25
2023-01-12T04:52:54.203Z,3.97
2023-01-12T04:55:20.610Z,2.60
2023-01-12T04:57:47.061Z,5.63
2023-01-12T05:00:13.641Z,5.13
2023-01-12T05:02:40.020Z,5.03
2023-01-12T05:05:08.588Z,5.72
2023-01-12T05:07:35.207Z,4.35
2023-01-12T05:10:20.074Z,3.53
2023-01-12T05:12:46.540Z,5.27
2023-01-12T05:15:13.070Z,2.60
2023-01-12T05:17:39.457Z,7.13
2023-01-12T05:20:06.509Z,4.93
2023-01-12T05:22:33.065Z,4.13
2023-01-12T05:24:59.448Z,2.57
2023-01-12T05:27:25.864Z,3.78
2023-01-12T05:29:52.744Z,3.95
2023-01-12T05:32:19.481Z,3.38
2023-01-12T05:34:45.902Z,5.40
2023-01-12T05:37:12.409Z,5.97
2023-01-12T05:39:38.752Z,5.88
2023-01-12T05:42:23.802Z,3.85
2023-01-12T05:44:50.299Z,4.72
2023-01-12T05:47:16.678Z,3.28
2023-01-12T05:49:43.099Z,1.20
2023-01-12T05:52:09.494Z,5.65
2023-01-12T05:54:35.911Z,3.88
2023-01-12T05:57:02.282Z,3.78
2023-01-12T05:59:28.658Z,2.15
2023-01-12T06:01:55.067Z,1.20
2023-01-12T06:04:21.477Z,1.00
2023-01-12T06:06:48.742Z,4.10
2023-01-12T06:09:15.251Z,2.72
2023-01-12T06:12:11.138Z,3.15
2023-01-12T06:14:37.555Z,1.83
2023-01-12T06:17:04.045Z,2.47
2023-01-12T06:19:30.559Z,0.20
2023-01-12T06:21:59.514Z,2.10
2023-01-12T06:24:28.248Z,0.82
2023-01-12T06:26:55.137Z,0.60
2023-01-12T06:29:21.649Z,1.58
2023-01-12T06:31:48.077Z,0.90
2023-01-12T06:34:14.546Z,3.95
2023-01-12T06:36:40.927Z,0.15
2023-01-12T06:39:07.328Z,1.13
2023-01-12T06:41:53.433Z,0.43
2023-01-12T06:44:19.861Z,2.53
2023-01-12T06:46:47.776Z,0.10
2023-01-12T06:49:16.482Z,1.20
2023-01-12T06:51:43.824Z,0.60
2023-01-12T06:54:10.342Z,1.88
2023-01-12T06:56:36.785Z,0.85
2023-01-12T06:59:03.314Z,1.40
2023-01-12T07:01:29.858Z,1.40
2023-01-12T07:03:56.306Z,0.20
2023-01-12T07:06:22.678Z,0.80
2023-01-12T07:08:49.147Z,1.48
2023-01-12T07:11:16.877Z,0.55
2023-01-12T07:13:43.384Z,1.55
2023-01-12T07:16:09.944Z,0.70
2023-01-12T07:18:36.425Z,0.80
2023-01-12T07:21:07.737Z,0.50
2023-01-12T07:23:35.104Z,0.40
2023-01-12T07:26:01.654Z,2.78
2023-01-12T07:28:28.177Z,2.50
2023-01-12T07:30:59.445Z,2.45
2023-01-12T07:33:25.944Z,0.88
2023-01-12T07:35:52.422Z,0.95
2023-01-12T07:38:18.925Z,4.22
2023-01-12T07:40:45.410Z,4.27
2023-01-12T07:43:14.033Z,0.68
2023-01-12T07:45:40.419Z,2.60
2023-01-12T07:48:06.858Z,3.92
2023-01-12T07:50:33.421Z,1.35
2023-01-12T07:53:03.508Z,1.53
2023-01-12T07:55:31.664Z,0.98
2023-01-12T07:58:00.716Z,2.70
2023-01-12T08:00:28.084Z,2.53
2023-01-12T08:02:55.902Z,4.93
2023-01-12T08:05:23.014Z,3.70
2023-01-12T08:07:49.508Z,4.35
2023-01-12T08:10:16.464Z,6.97
2023-01-12T08:12:42.902Z,3.60
2023-01-12T08:15:09.947Z,3.42
2023-01-12T08:17:46.562Z,6.70
2023-01-12T08:20:22.070Z,4.22
2023-01-12T08:22:53.327Z,4.00
2023-01-12T08:25:26.661Z,1.58
2023-01-12T08:27:56.058Z,4.70
2023-01-12T08:30:24.334Z,7.00
2023-01-12T08:32:50.815Z,4.95
2023-01-12T08:35:21.818Z,3.45
2023-01-12T08:37:48.287Z,8.27
2023-01-12T08:40:15.052Z,5.72
2023-01-12T08:42:41.598Z,6.70
2023-01-12T08:45:08.699Z,10.60
2023-01-12T08:47:35.738Z,5.45
2023-01-12T08:50:03.932Z,5.40
2023-01-12T08:52:32.515Z,5.20
2023-01-12T08:54:58.999Z,6.90
2023-01-12T08:57:25.428Z,5.03
2023-01-12T08:59:51.886Z,7.70
2023-01-12T09:02:18.704Z,3.63
2023-01-12T09:04:45.554Z,7.25
2023-01-12T09:07:12.923Z,5.80
2023-01-12T09:09:39.435Z,1.90
2023-01-12T09:12:06.259Z,3.95
2023-01-12T09:14:38.539Z,6.32
2023-01-12T09:17:06.703Z,4.90
2023-01-12T09:19:33.459Z,3.20
2023-01-12T09:21:59.952Z,3.42
2023-01-12T09:24:26.587Z,7.85
2023-01-12T09:26:53.099Z,7.97
2023-01-12T09:29:19.626Z,7.88
2023-01-12T09:31:47.283Z,5.50
2023-01-12T09:34:13.787Z,3.20
2023-01-12T09:36:41.474Z,11.65
2023-01-12T09:39:10.383Z,10.18
2023-01-12T09:42:02.437Z,14.15
2023-01-12T09:44:58.432Z,6.70
2023-01-12T09:47:48.975Z,8.02
2023-01-12T09:50:23.676Z,9.15
2023-01-12T09:53:02.084Z,11.80
2023-01-12T09:55:56.127Z,9.70
2023-01-12T09:58:38.423Z,10.73
2023-01-12T10:01:20.467Z,6.75
2023-01-12T10:03:55.479Z,8.82
2023-01-12T10:06:22.157Z,9.65
2023-01-12T10:08:58.260Z,10.57
2023-01-12T10:11:52.235Z,10.67
2023-01-12T10:14:34.125Z,11.70
2023-01-12T10:17:27.757Z,11.77
2023-01-12T10:20:04.335Z,12.88
2023-01-12T10:22:43.845Z,10.38
2023-01-12T10:25:35.065Z,8.13
2023-01-12T10:28:26.175Z,12.82
2023-01-12T10:30:56.232Z,9.05
2023-01-12T10:33:25.652Z,11.52
2023-01-12T10:36:09.191Z,5.03
2023-01-12T10:38:52.453Z,7.30
2023-01-12T10:41:28.811Z,8.20
2023-01-12T10:43:58.115Z,9.90
2023-01-12T10:46:32.561Z,9.57
2023-01-12T10:49:19.333Z,7.22
2023-01-12T10:51:53.078Z,3.93
2023-01-12T10:54:22.929Z,6.60
2023-01-12T10:57:03.375Z,7.30
2023-01-12T10:59:33.629Z,6.88
2023-01-12T11:02:09.359Z,5.82
2023-01-12T11:04:45.119Z,7.40
2023-01-12T11:07:16.088Z,6.60
2023-01-12T11:09:43.839Z,5.60
2023-01-12T11:12:23.625Z,4.13
2023-01-12T11:15:15.151Z,3.53
2023-01-12T11:18:00.381Z,9.53
2023-01-12T11:20:38.019Z,4.68
2023-01-12T11:23:10.905Z,5.85
2023-01-12T11:25:43.366Z,7.85
2023-01-12T11:28:19.266Z,6.72
2023-01-12T11:30:58.158Z,3.97
2023-01-12T11:33:24.607Z,3.05
2023-01-12T11:36:07.761Z,4.03
2023-01-12T11:38:40.881Z,2.97
2023-01-12T11:41:15.494Z,5.72
2023-01-12T11:43:50.942Z,5.67
2023-01-12T11:46:21.647Z,7.20
2023-01-12T11:48:59.694Z,3.08
2023-01-12T11:51:26.401Z,6.93
2023-01-12T11:53:53.269Z,5.07
2023-01-12T11:56:53.944Z,2.93
2023-01-12T11:59:42.117Z,2.42
2023-01-12T12:02:30.179Z,2.10
2023-01-12T12:05:20.939Z,2.60
2023-01-12T12:07:50.447Z,2.35
2023-01-12T12:10:23.792Z,4.53
2023-01-12T12:13:14.678Z,2.90
2023-01-12T12:15:50.464Z,2.85
2023-01-12T12:18:35.266Z,3.03
2023-01-12T12:21:07.616Z,1.85
2023-01-12T12:23:53.747Z,2.73
2023-01-12T12:26:23.114Z,4.90
2023-01-12T12:28:58.831Z,3.97
2023-01-12T12:31:40.094Z,3.65
2023-01-12T12:34:33.155Z,2.67
2023-01-12T12:37:12.007Z,2.40
2023-01-12T12:39:57.868Z,4.07
2023-01-12T12:42:55.577Z,2.42
2023-01-12T12:45:24.663Z,4.20
2023-01-12T12:48:06.575Z,2.85
2023-01-12T12:50:46.339Z,2.87
2023-01-12T12:53:15.603Z,4.70
2023-01-12T12:55:43.260Z,2.90
2023-01-12T12:58:21.704Z,1.88
2023-01-12T13:00:52.440Z,1.75
2023-01-12T13:03:40.243Z,2.97
2023-01-12T13:06:25.430Z,2.03
2023-01-12T13:08:57.473Z,1.73
2023-01-12T13:11:51.848Z,0.25
2023-01-12T13:14:25.206Z,0.20
2023-01-12T13:16:54.063Z,0.33
2023-01-12T13:19:35.884Z,0.70
2023-01-12T13:22:27.868Z,0.10
2023-01-12T13:24:59.813Z,1.17
2023-01-12T13:27:57.256Z,0.20
2023-01-12T13:30:26.643Z,0.23
2023-01-12T13:32:53.052Z,0.10
2023-01-12T13:35:46.650Z,0.17
2023-01-12T13:38:43.694Z,0.43
2023-01-12T13:41:13.350Z,0.52
2023-01-12T13:43:57.791Z,0.60
2023-01-12T13:46:30.802Z,0.70
2023-01-12T13:48:57.363Z,1.50
2023-01-12T13:51:39.421Z,0.38
2023-01-12T13:54:15.894Z,0.85
2023-01-12T13:56:43.086Z,0.93
2023-01-12T13:59:19.246Z,2.15
2023-01-12T14:01:48.479Z,0.57
2023-01-12T14:04:20.167Z,1.52
2023-01-12T14:07:18.192Z,1.45
2023-01-12T14:10:11.402Z,2.27
2023-01-12T14:12:37.746Z,0.63
2023-01-12T14:15:41.580Z,1.05
2023-01-12T14:18:17.433Z,0.38
2023-01-12T14:20:52.740Z,1.90
2023-01-12T14:23:33.667Z,2.17
2023-01-12T14:26:07.570Z,1.30
2023-01-12T14:28:34.744Z,0.68
2023-01-12T14:31:01.971Z,0.82
2023-01-12T14:33:31.755Z,0.40
2023-01-12T14:36:13.151Z,0.83
2023-01-12T14:38:42.432Z,2.40
2023-01-12T14:41:31.240Z,0.40
2023-01-12T14:44:16.478Z,1.23
2023-01-12T14:46:51.720Z,0.60
2023-01-12T14:49:38.377Z,0.40
2023-01-12T14:52:16.865Z,2.70
2023-01-12T14:54:43.663Z,1.17
2023-01-12T14:57:31.212Z,0.73
2023-01-12T14:59:57.947Z,1.38
2023-01-12T15:02:31.074Z,2.20
2023-01-12T15:05:04.930Z,2.67
2023-01-12T15:07:41.448Z,1.85
2023-01-12T15:10:10.849Z,1.30
2023-01-12T15:12:49.124Z,0.85
2023-01-12T15:15:24.407Z,1.17
2023-01-12T15:18:11.994Z,0.40
2023-01-12T15:21:04.337Z,1.75
2023-01-12T15:23:55.529Z,1.77
2023-01-12T15:26:22.246Z,1.48
2023-01-12T15:28:49.567Z,0.30
2023-01-12T15:31:32.799Z,1.83
2023-01-12T15:34:00.620Z,0.73
2023-01-12T15:36:27.108Z,0.40
2023-01-12T15:38:53.928Z,1.55
2023-01-12T15:41:48.089Z,0.60
2023-01-12T15:44:16.630Z,0.80
2023-01-12T15:46:43.471Z,0.93
2023-01-12T15:49:13.196Z,1.05
2023-01-12T15:51:40.751Z,0.65
2023-01-12T15:54:09.980Z,0.80
2023-01-12T15:56:36.522Z,1.75
2023-01-12T15:59:03.074Z,1.25
2023-01-12T16:01:36.420Z,2.50
2023-01-12T16:04:40.517Z,0.75
2023-01-12T16:06:53.410Z,1.53
2023-01-12T16:09:20.028Z,0.85
2023-01-12T16:11:46.574Z,1.88
2023-01-12T16:14:14.962Z,0.80
2023-01-12T16:16:41.698Z,1.00
2023-01-12T16:19:09.544Z,1.80
2023-01-12T16:21:36.503Z,0.90
2023-01-12T16:24:03.631Z,1.88
2023-01-12T16:26:30.730Z,2.15
2023-01-12T16:28:57.834Z,1.25
2023-01-12T16:31:25.408Z,0.87
2023-01-12T16:33:51.960Z,0.70
2023-01-12T16:36:18.829Z,0.82
2023-01-12T16:38:45.270Z,0.90
2023-01-12T16:41:15.217Z,0.80
2023-01-12T16:43:41.821Z,2.47
2023-01-12T16:46:08.297Z,0.80
2023-01-12T16:48:35.207Z,0.83
2023-01-12T16:51:01.625Z,0.80
2023-01-12T16:53:28.236Z,0.80
2023-01-12T16:55:54.837Z,0.60
2023-01-12T16:58:21.206Z,0.67
2023-01-12T17:00:47.897Z,0.75
2023-01-12T17:03:14.870Z,0.90
2023-01-12T17:05:41.979Z,0.95
2023-01-12T17:08:09.138Z,2.15
2023-01-12T17:10:36.396Z,2.57
2023-01-12T17:13:03.327Z,1.80
2023-01-12T17:15:30.467Z,1.00
2023-01-12T17:17:57.264Z,0.73
2023-01-12T17:20:23.809Z,1.08
2023-01-12T17:22:50.722Z,0.80
2023-01-12T17:25:17.566Z,1.00
2023-01-12T17:27:44.053Z,2.28
2023-01-12T17:30:11.163Z,1.95
2023-01-12T17:32:37.697Z,1.58
2023-01-12T17:35:07.155Z,1.13
2023-01-12T17:37:33.584Z,1.80
2023-01-12T17:40:00.487Z,1.80
2023-01-12T17:42:45.515Z,1.00
2023-01-12T17:45:12.273Z,1.23
2023-01-12T17:47:38.788Z,1.73
2023-01-12T17:50:05.663Z,0.70
2023-01-12T17:52:32.165Z,0.80
2023-01-12T17:54:58.726Z,1.15
2023-01-12T17:57:26.149Z,0.70
2023-01-12T17:59:52.796Z,0.43
2023-01-12T18:02:19.473Z,1.35
2023-01-12T18:04:46.335Z,0.77
2023-01-12T18:07:12.898Z,0.63
2023-01-12T18:09:39.487Z,1.63
2023-01-12T18:12:06.126Z,1.83
2023-01-12T18:14:32.745Z,1.25
2023-01-12T18:16:59.212Z,1.10
2023-01-12T18:19:25.837Z,1.23
2023-01-12T18:21:52.370Z,1.67
2023-01-12T18:24:19.112Z,1.30
2023-01-12T18:26:45.720Z,1.33
2023-01-12T18:29:12.382Z,2.55
2023-01-12T18:31:42.407Z,1.77
2023-01-12T18:34:10.890Z,1.25
2023-01-12T18:36:40.107Z,2.30
2023-01-12T18:39:11.150Z,1.20
2023-01-12T18:41:56.335Z,2.78
2023-01-12T18:44:23.856Z,2.25
2023-01-12T18:47:09.028Z,2.90
2023-01-12T18:49:36.199Z,3.80
2023-01-12T18:52:21.888Z,3.25
2023-01-12T18:54:51.479Z,1.90
2023-01-12T18:57:20.398Z,2.30
2023-01-12T18:59:48.627Z,2.05
2023-01-12T19:02:15.806Z,1.80
2023-01-12T19:04:51.307Z,2.08
2023-01-12T19:07:49.457Z,1.85
2023-01-12T19:10:16.205Z,2.60
2023-01-12T19:12:45.873Z,1.85
2023-01-12T19:15:32.188Z,2.93
2023-01-12T19:17:58.841Z,2.33
2023-01-12T19:20:31.668Z,2.20
2023-01-12T19:23:16.613Z,3.53
2023-01-12T19:26:21.245Z,1.30
2023-01-12T19:28:47.851Z,3.20
2023-01-12T19:31:17.491Z,1.90
2023-01-12T19:33:44.440Z,1.55
2023-01-12T19:36:15.466Z,2.50
2023-01-12T19:38:50.532Z,2.17
2023-01-12T19:41:35.667Z,4.10
2023-01-12T19:44:05.252Z,3.95
2023-01-12T19:46:32.971Z,1.92
2023-01-12T19:48:59.532Z,5.22
2023-01-12T19:51:25.992Z,3.97
2023-01-12T19:53:52.426Z,4.20
2023-01-12T19:56:18.848Z,4.82
2023-01-12T19:58:45.228Z,3.63
2023-01-12T20:01:20.414Z,2.03
2023-01-12T20:03:47.186Z,2.28
2023-01-12T20:06:13.591Z,1.97
2023-01-12T20:08:41.515Z,2.75
2023-01-12T20:11:08.367Z,3.50
2023-01-12T20:13:35.397Z,2.30
2023-01-12T20:16:10.002Z,4.70
2023-01-12T20:18:36.528Z,2.30
2023-01-12T20:21:08.235Z,3.05
2023-01-12T20:23:34.788Z,2.85
2023-01-12T20:26:01.195Z,1.77
2023-01-12T20:28:27.639Z,2.50
2023-01-12T20:30:54.033Z,2.37
2023-01-12T20:33:21.910Z,4.55
2023-01-12T20:35:49.603Z,3.10
2023-01-12T20:38:16.939Z,1.95
2023-01-12T20:40:45.289Z,2.10
2023-01-12T20:43:12.399Z,2.93
2023-01-12T20:45:40.694Z,2.08
2023-01-12T20:48:07.247Z,3.63
2023-01-12T20:50:33.759Z,3.80
2023-01-12T20:53:00.240Z,3.25
2023-01-12T20:55:26.792Z,4.80
2023-01-12T20:57:53.279Z,4.15
2023-01-12T21:00:19.978Z,2.75
2023-01-12T21:02:46.483Z,2.47
2023-01-12T21:05:13.083Z,4.43
2023-01-12T21:07:39.543Z,2.93
2023-01-12T21:10:07.361Z,3.97
2023-01-12T21:12:33.922Z,4.22
2023-01-12T21:15:00.429Z,3.47
2023-01-12T21:17:26.856Z,1.45
2023-01-12T21:19:53.326Z,2.17
2023-01-12T21:22:20.853Z,4.47
2023-01-12T21:24:47.464Z,0.80
2023-01-12T21:27:13.882Z,3.60
2023-01-12T21:29:40.279Z,4.15
2023-01-12T21:32:06.934Z,4.17
2023-01-12T21:34:33.461Z,4.00
2023-01-12T21:36:59.872Z,2.20
2023-01-12T21:39:26.284Z,2.65
2023-01-12T21:42:11.416Z,5.40
2023-01-12T21:44:37.814Z,2.07
2023-01-12T21:47:04.355Z,2.00
2023-01-12T21:49:30.807Z,2.33
2023-01-12T21:51:57.293Z,1.95
2023-01-12T21:54:23.794Z,2.13
2023-01-12T21:56:50.460Z,3.83
2023-01-12T21:59:18.506Z,4.00
2023-01-12T22:01:45.513Z,3.63
2023-01-12T22:04:12.099Z,3.63
2023-01-12T22:06:38.655Z,4.90
2023-01-12T22:09:05.071Z,5.50
2023-01-12T22:11:31.560Z,8.57
2023-01-12T22:13:57.968Z,7.15
2023-01-12T22:16:24.566Z,8.80
2023-01-12T22:18:51.106Z,3.97
2023-01-12T22:21:20.857Z,8.77
2023-01-12T22:23:48.045Z,14.93
2023-01-12T22:26:15.839Z,8.75
2023-01-12T22:28:43.982Z,9.90
2023-01-12T22:31:12.409Z,9.48
2023-01-12T22:33:39.530Z,12.00
2023-01-12T22:36:07.327Z,18.00
2023-01-12T22:38:34.073Z,14.60
2023-01-12T22:41:07.389Z,13.70
2023-01-12T22:43:40.435Z,14.30
2023-01-12T22:46:14.236Z,12.07
2023-01-12T22:48:40.911Z,7.72
2023-01-12T22:51:08.003Z,13.88
2023-01-12T22:53:34.845Z,12.15
2023-01-12T22:56:03.272Z,10.95
2023-01-12T22:58:29.959Z,21.63
2023-01-12T23:01:03.309Z,14.60
2023-01-12T23:03:30.317Z,19.65
2023-01-12T23:05:57.530Z,14.27
2023-01-12T23:08:25.032Z,19.23
2023-01-12T23:10:52.080Z,19.87
2023-01-12T23:13:21.244Z,19.17
2023-01-12T23:15:51.049Z,17.10
2023-01-12T23:18:20.065Z,13.48
2023-01-12T23:20:47.432Z,16.65
2023-01-12T23:23:14.657Z,11.90
2023-01-12T23:25:44.641Z,18.95
2023-01-12T23:28:12.879Z,12.90
2023-01-12T23:30:39.684Z,10.45
2023-01-12T23:33:06.247Z,15.65
2023-01-12T23:35:39.008Z,11.17
2023-01-12T23:38:07.044Z,12.35
2023-01-12T23:40:33.629Z,16.80
2023-01-12T23:43:00.605Z,22.00
2023-01-12T23:45:27.434Z,23.35
2023-01-12T23:47:53.859Z,23.37
2023-01-12T23:50:20.386Z,15.13
2023-01-12T23:52:48.866Z,14.05
2023-01-12T23:55:15.621Z,19.38
2023-01-12T23:57:42.207Z,21.60
